sensor_id;sensor_type;location;lat;lon;timestamp;temperature;humidity
52024;DHT22;38038;45.922;13.604;2024-01-30T00:01:42;0.00;99.90
52024;DHT22;38038;45.922;13.604;2024-01-30T00:04:08;0.00;99.90
52024;DHT22;38038;45.922;13.604;2024-01-30T00:06:33;0.00;99.90
52024;DHT22;38038;45.922;13.604;2024-01-30T00:08:59;0.00;99.90
52024;DHT22;38038;45.922;13.604;2024-01-30T00:11:25;0.00;99.90
52024;DHT22;38038;45.922;13.604;2024-01-30T00:13:51;-0.10;99.90
52024;DHT22;38038;45.922;13.604;2024-01-30T00:16:24;-0.10;99.90
52024;DHT22;38038;45.922;13.604;2024-01-30T00:18:53;-0.20;99.90
52024;DHT22;38038;45.922;13.604;2024-01-30T00:21:19;-0.20;99.90
52024;DHT22;38038;45.922;13.604;2024-01-30T00:23:45;-0.30;99.90
52024;DHT22;38038;45.922;13.604;2024-01-30T00:26:11;-0.30;99.90
52024;DHT22;38038;45.922;13.604;2024-01-30T00:28:41;-0.20;99.90
52024;DHT22;38038;45.922;13.604;2024-01-30T00:31:07;-0.30;99.90
52024;DHT22;38038;45.922;13.604;2024-01-30T00:33:33;-0.40;99.90
52024;DHT22;38038;45.922;13.604;2024-01-30T00:35:58;-0.40;99.90
52024;DHT22;38038;45.922;13.604;2024-01-30T00:38:24;-0.40;99.90
52024;DHT22;38038;45.922;13.604;2024-01-30T00:40:50;-0.50;99.90
52024;DHT22;38038;45.922;13.604;2024-01-30T00:43:16;-0.50;99.90
52024;DHT22;38038;45.922;13.604;2024-01-30T00:45:43;-0.50;99.90
52024;DHT22;38038;45.922;13.604;2024-01-30T00:48:09;-0.60;99.90
52024;DHT22;38038;45.922;13.604;2024-01-30T00:50:35;-0.60;99.90
52024;DHT22;38038;45.922;13.604;2024-01-30T00:53:00;-0.60;99.90
52024;DHT22;38038;45.922;13.604;2024-01-30T00:55:26;-0.70;99.90
52024;DHT22;38038;45.922;13.604;2024-01-30T00:57:52;-0.70;99.90
52024;DHT22;38038;45.922;13.604;2024-01-30T01:00:18;-0.70;99.90
52024;DHT22;38038;45.922;13.604;2024-01-30T01:02:44;-0.70;99.90
52024;DHT22;38038;45.922;13.604;2024-01-30T01:05:10;-0.70;99.90
52024;DHT22;38038;45.922;13.604;2024-01-30T01:07:36;-0.70;99.90
52024;DHT22;38038;45.922;13.604;2024-01-30T01:10:02;-0.70;99.90
52024;DHT22;38038;45.922;13.604;2024-01-30T01:12:28;-0.70;99.90
52024;DHT22;38038;45.922;13.604;2024-01-30T01:14:54;-0.60;99.90
52024;DHT22;38038;45.922;13.604;2024-01-30T01:17:19;-0.50;99.90
52024;DHT22;38038;45.922;13.604;2024-01-30T01:19:45;-0.60;99.90
52024;DHT22;38038;45.922;13.604;2024-01-30T01:22:11;-0.70;99.90
52024;DHT22;38038;45.922;13.604;2024-01-30T01:24:37;-0.60;99.90
52024;DHT22;38038;45.922;13.604;2024-01-30T01:27:03;-0.70;99.90
52024;DHT22;38038;45.922;13.604;2024-01-30T01:29:28;-0.60;99.90
52024;DHT22;38038;45.922;13.604;2024-01-30T01:31:58;-0.60;99.90
52024;DHT22;38038;45.922;13.604;2024-01-30T01:34:24;-0.60;99.90
52024;DHT22;38038;45.922;13.604;2024-01-30T01:36:50;-0.50;99.90
52024;DHT22;38038;45.922;13.604;2024-01-30T01:39:16;-0.50;99.90
52024;DHT22;38038;45.922;13.604;2024-01-30T01:41:42;-0.50;99.90
52024;DHT22;38038;45.922;13.604;2024-01-30T05:20:37;-1.10;99.90
52024;DHT22;38038;45.922;13.604;2024-01-30T05:23:03;-1.20;99.90
52024;DHT22;38038;45.922;13.604;2024-01-30T05:25:29;-1.20;99.90
52024;DHT22;38038;45.922;13.604;2024-01-30T05:27:55;-1.30;99.90
52024;DHT22;38038;45.922;13.604;2024-01-30T05:30:20;-1.30;99.90
52024;DHT22;38038;45.922;13.604;2024-01-30T05:32:46;-1.30;99.90
52024;DHT22;38038;45.922;13.604;2024-01-30T05:35:12;-1.30;99.90
52024;DHT22;38038;45.922;13.604;2024-01-30T05:37:38;-1.40;99.90
52024;DHT22;38038;45.922;13.604;2024-01-30T05:40:04;-1.20;99.90
52024;DHT22;38038;45.922;13.604;2024-01-30T05:42:30;-1.30;99.90
52024;DHT22;38038;45.922;13.604;2024-01-30T05:44:56;-1.30;99.90
52024;DHT22;38038;45.922;13.604;2024-01-30T05:47:22;-1.40;99.90
52024;DHT22;38038;45.922;13.604;2024-01-30T05:49:48;-1.40;99.90
52024;DHT22;38038;45.922;13.604;2024-01-30T05:52:14;-1.40;99.90
52024;DHT22;38038;45.922;13.604;2024-01-30T05:54:40;-1.30;99.90
52024;DHT22;38038;45.922;13.604;2024-01-30T05:57:06;-1.40;99.90
52024;DHT22;38038;45.922;13.604;2024-01-30T05:59:32;-1.40;99.90
52024;DHT22;38038;45.922;13.604;2024-01-30T06:01:58;-1.40;99.90
52024;DHT22;38038;45.922;13.604;2024-01-30T06:04:23;-1.60;99.90
52024;DHT22;38038;45.922;13.604;2024-01-30T06:06:49;-1.60;99.90
52024;DHT22;38038;45.922;13.604;2024-01-30T06:09:15;-1.60;99.90
52024;DHT22;38038;45.922;13.604;2024-01-30T06:11:40;-1.60;99.90
52024;DHT22;38038;45.922;13.604;2024-01-30T06:14:06;-1.50;99.90
52024;DHT22;38038;45.922;13.604;2024-01-30T06:16:32;-1.50;99.90
52024;DHT22;38038;45.922;13.604;2024-01-30T06:18:57;-1.50;99.90
52024;DHT22;38038;45.922;13.604;2024-01-30T06:21:24;-1.40;99.90
52024;DHT22;38038;45.922;13.604;2024-01-30T06:23:50;-1.30;99.90
52024;DHT22;38038;45.922;13.604;2024-01-30T06:26:16;-1.30;99.90
52024;DHT22;38038;45.922;13.604;2024-01-30T06:28:41;-1.20;99.90
52024;DHT22;38038;45.922;13.604;2024-01-30T06:31:07;-1.10;99.90
52024;DHT22;38038;45.922;13.604;2024-01-30T06:33:33;-1.00;99.90
52024;DHT22;38038;45.922;13.604;2024-01-30T06:35:58;-0.90;99.90
52024;DHT22;38038;45.922;13.604;2024-01-30T06:38:24;-0.90;99.90
52024;DHT22;38038;45.922;13.604;2024-01-30T06:40:50;-0.80;99.90
52024;DHT22;38038;45.922;13.604;2024-01-30T06:43:15;-0.80;99.90
52024;DHT22;38038;45.922;13.604;2024-01-30T06:45:41;-0.90;99.90
52024;DHT22;38038;45.922;13.604;2024-01-30T06:48:08;-1.00;99.90
52024;DHT22;38038;45.922;13.604;2024-01-30T06:50:34;-1.00;99.90
52024;DHT22;38038;45.922;13.604;2024-01-30T06:52:59;-1.10;99.90
52024;DHT22;38038;45.922;13.604;2024-01-30T06:55:25;-1.00;99.90
52024;DHT22;38038;45.922;13.604;2024-01-30T06:57:51;-0.90;99.90
52024;DHT22;38038;45.922;13.604;2024-01-30T07:00:16;-0.70;99.90
52024;DHT22;38038;45.922;13.604;2024-01-30T07:02:44;-0.70;99.90
52024;DHT22;38038;45.922;13.604;2024-01-30T07:05:10;-0.70;99.90
52024;DHT22;38038;45.922;13.604;2024-01-30T07:07:35;-0.80;99.90
52024;DHT22;38038;45.922;13.604;2024-01-30T07:10:01;-0.70;99.90
52024;DHT22;38038;45.922;13.604;2024-01-30T07:12:27;-0.70;99.90
52024;DHT22;38038;45.922;13.604;2024-01-30T07:14:52;-0.80;99.90
52024;DHT22;38038;45.922;13.604;2024-01-30T07:17:18;-0.70;99.90
52024;DHT22;38038;45.922;13.604;2024-01-30T07:19:44;-0.80;99.90
52024;DHT22;38038;45.922;13.604;2024-01-30T07:22:10;-0.70;99.90
52024;DHT22;38038;45.922;13.604;2024-01-30T07:24:36;-0.60;99.90
52024;DHT22;38038;45.922;13.604;2024-01-30T07:27:01;-0.60;99.90
52024;DHT22;38038;45.922;13.604;2024-01-30T07:29:27;-0.60;99.90
52024;DHT22;38038;45.922;13.604;2024-01-30T07:31:53;-0.50;99.90
52024;DHT22;38038;45.922;13.604;2024-01-30T07:34:19;-0.40;99.90
52024;DHT22;38038;45.922;13.604;2024-01-30T07:36:44;-0.40;99.90
52024;DHT22;38038;45.922;13.604;2024-01-30T07:39:11;-0.30;99.90
52024;DHT22;38038;45.922;13.604;2024-01-30T07:41:37;-0.20;99.90
52024;DHT22;38038;45.922;13.604;2024-01-30T07:44:03;-0.10;99.90
52024;DHT22;38038;45.922;13.604;2024-01-30T07:46:29;0.00;99.90
52024;DHT22;38038;45.922;13.604;2024-01-30T07:48:54;0.10;99.90
52024;DHT22;38038;45.922;13.604;2024-01-30T07:51:21;0.10;99.90
52024;DHT22;38038;45.922;13.604;2024-01-30T07:53:53;0.20;99.90
52024;DHT22;38038;45.922;13.604;2024-01-30T07:56:18;0.30;99.90
52024;DHT22;38038;45.922;13.604;2024-01-30T07:58:44;0.40;99.90
52024;DHT22;38038;45.922;13.604;2024-01-30T08:01:10;0.60;99.90
52024;DHT22;38038;45.922;13.604;2024-01-30T08:03:36;0.70;99.90
52024;DHT22;38038;45.922;13.604;2024-01-30T08:06:02;0.80;99.90
52024;DHT22;38038;45.922;13.604;2024-01-30T08:08:28;1.00;99.90
52024;DHT22;38038;45.922;13.604;2024-01-30T08:10:54;1.10;99.90
52024;DHT22;38038;45.922;13.604;2024-01-30T08:13:20;1.20;99.90
52024;DHT22;38038;45.922;13.604;2024-01-30T08:15:45;1.40;99.90
52024;DHT22;38038;45.922;13.604;2024-01-30T08:18:11;1.60;99.90
52024;DHT22;38038;45.922;13.604;2024-01-30T08:20:37;1.70;99.90
52024;DHT22;38038;45.922;13.604;2024-01-30T08:23:03;1.80;99.90
52024;DHT22;38038;45.922;13.604;2024-01-30T08:25:28;2.00;99.90
52024;DHT22;38038;45.922;13.604;2024-01-30T08:27:54;2.00;99.90
52024;DHT22;38038;45.922;13.604;2024-01-30T08:30:20;2.20;99.90
52024;DHT22;38038;45.922;13.604;2024-01-30T08:32:46;2.30;99.90
52024;DHT22;38038;45.922;13.604;2024-01-30T08:35:12;2.40;99.90
52024;DHT22;38038;45.922;13.604;2024-01-30T08:37:40;2.50;99.90
52024;DHT22;38038;45.922;13.604;2024-01-30T08:40:07;2.60;99.90
52024;DHT22;38038;45.922;13.604;2024-01-30T08:42:34;2.90;99.90
52024;DHT22;38038;45.922;13.604;2024-01-30T08:44:59;2.90;99.90
52024;DHT22;38038;45.922;13.604;2024-01-30T08:47:25;3.00;99.90
52024;DHT22;38038;45.922;13.604;2024-01-30T08:49:51;3.20;99.90
52024;DHT22;38038;45.922;13.604;2024-01-30T08:52:17;3.40;99.90
52024;DHT22;38038;45.922;13.604;2024-01-30T08:54:43;3.50;99.90
52024;DHT22;38038;45.922;13.604;2024-01-30T08:57:08;3.60;99.90
52024;DHT22;38038;45.922;13.604;2024-01-30T08:59:34;3.70;99.90
52024;DHT22;38038;45.922;13.604;2024-01-30T09:02:00;3.90;99.90
52024;DHT22;38038;45.922;13.604;2024-01-30T09:04:26;3.90;99.90
52024;DHT22;38038;45.922;13.604;2024-01-30T09:06:51;4.00;99.90
52024;DHT22;38038;45.922;13.604;2024-01-30T09:09:17;4.10;99.90
52024;DHT22;38038;45.922;13.604;2024-01-30T09:11:43;4.20;99.90
52024;DHT22;38038;45.922;13.604;2024-01-30T09:14:09;4.30;99.90
52024;DHT22;38038;45.922;13.604;2024-01-30T09:16:35;4.50;99.90
52024;DHT22;38038;45.922;13.604;2024-01-30T09:19:00;4.80;99.90
52024;DHT22;38038;45.922;13.604;2024-01-30T09:21:26;4.80;99.90
52024;DHT22;38038;45.922;13.604;2024-01-30T09:23:54;4.90;99.90
52024;DHT22;38038;45.922;13.604;2024-01-30T09:26:20;4.90;99.90
52024;DHT22;38038;45.922;13.604;2024-01-30T09:28:46;5.00;99.90
52024;DHT22;38038;45.922;13.604;2024-01-30T09:31:12;5.10;99.90
52024;DHT22;38038;45.922;13.604;2024-01-30T09:33:38;5.10;99.90
52024;DHT22;38038;45.922;13.604;2024-01-30T09:36:05;5.30;99.90
52024;DHT22;38038;45.922;13.604;2024-01-30T09:38:31;5.50;99.90
52024;DHT22;38038;45.922;13.604;2024-01-30T09:41:02;5.50;99.90
52024;DHT22;38038;45.922;13.604;2024-01-30T09:43:33;5.50;99.90
52024;DHT22;38038;45.922;13.604;2024-01-30T09:46:00;5.60;99.90
52024;DHT22;38038;45.922;13.604;2024-01-30T09:48:30;5.60;99.90
52024;DHT22;38038;45.922;13.604;2024-01-30T09:50:57;5.70;99.90
52024;DHT22;38038;45.922;13.604;2024-01-30T09:53:24;5.90;99.90
52024;DHT22;38038;45.922;13.604;2024-01-30T09:55:51;5.90;99.90
52024;DHT22;38038;45.922;13.604;2024-01-30T09:58:16;6.10;99.90
52024;DHT22;38038;45.922;13.604;2024-01-30T10:00:42;6.10;99.90
52024;DHT22;38038;45.922;13.604;2024-01-30T10:03:08;6.30;99.90
52024;DHT22;38038;45.922;13.604;2024-01-30T10:05:36;6.40;99.90
52024;DHT22;38038;45.922;13.604;2024-01-30T10:08:07;6.50;99.70
52024;DHT22;38038;45.922;13.604;2024-01-30T10:10:35;6.60;99.40
52024;DHT22;38038;45.922;13.604;2024-01-30T10:13:01;6.70;99.10
52024;DHT22;38038;45.922;13.604;2024-01-30T10:15:28;6.90;96.80
52024;DHT22;38038;45.922;13.604;2024-01-30T10:17:54;7.10;97.00
52024;DHT22;38038;45.922;13.604;2024-01-30T10:20:20;7.20;96.20
52024;DHT22;38038;45.922;13.604;2024-01-30T10:22:48;7.40;95.60
52024;DHT22;38038;45.922;13.604;2024-01-30T10:25:15;7.40;96.10
52024;DHT22;38038;45.922;13.604;2024-01-30T10:27:41;7.40;96.10
52024;DHT22;38038;45.922;13.604;2024-01-30T10:30:07;7.50;96.00
52024;DHT22;38038;45.922;13.604;2024-01-30T10:32:33;7.50;95.80
52024;DHT22;38038;45.922;13.604;2024-01-30T10:34:59;7.60;95.70
52024;DHT22;38038;45.922;13.604;2024-01-30T10:37:25;7.70;93.90
52024;DHT22;38038;45.922;13.604;2024-01-30T10:39:53;7.80;94.40
52024;DHT22;38038;45.922;13.604;2024-01-30T10:42:20;7.90;94.70
52024;DHT22;38038;45.922;13.604;2024-01-30T10:45:09;8.00;94.00
52024;DHT22;38038;45.922;13.604;2024-01-30T10:47:40;8.10;93.90
52024;DHT22;38038;45.922;13.604;2024-01-30T10:50:08;8.10;93.90
52024;DHT22;38038;45.922;13.604;2024-01-30T10:52:34;8.40;93.10
52024;DHT22;38038;45.922;13.604;2024-01-30T10:55:00;8.50;92.30
52024;DHT22;38038;45.922;13.604;2024-01-30T10:57:26;8.60;91.40
52024;DHT22;38038;45.922;13.604;2024-01-30T10:59:55;8.60;92.20
52024;DHT22;38038;45.922;13.604;2024-01-30T11:02:22;8.60;92.10
52024;DHT22;38038;45.922;13.604;2024-01-30T11:04:49;8.60;92.50
52024;DHT22;38038;45.922;13.604;2024-01-30T11:07:19;8.60;93.30
52024;DHT22;38038;45.922;13.604;2024-01-30T11:10:07;8.60;93.30
52024;DHT22;38038;45.922;13.604;2024-01-30T11:12:39;8.70;92.80
52024;DHT22;38038;45.922;13.604;2024-01-30T11:15:11;8.60;92.30
52024;DHT22;38038;45.922;13.604;2024-01-30T11:20:36;8.70;91.50
52024;DHT22;38038;45.922;13.604;2024-01-30T11:23:01;8.70;91.10
52024;DHT22;38038;45.922;13.604;2024-01-30T11:25:32;8.80;90.70
52024;DHT22;38038;45.922;13.604;2024-01-30T11:27:58;9.00;90.60
52024;DHT22;38038;45.922;13.604;2024-01-30T11:30:32;9.00;90.40
52024;DHT22;38038;45.922;13.604;2024-01-30T11:33:05;8.90;90.50
52024;DHT22;38038;45.922;13.604;2024-01-30T11:35:35;9.10;90.10
52024;DHT22;38038;45.922;13.604;2024-01-30T11:38:02;9.20;88.60
52024;DHT22;38038;45.922;13.604;2024-01-30T11:40:29;9.10;88.20
52024;DHT22;38038;45.922;13.604;2024-01-30T11:42:56;9.20;88.20
52024;DHT22;38038;45.922;13.604;2024-01-30T11:45:23;9.20;89.10
52024;DHT22;38038;45.922;13.604;2024-01-30T11:47:49;9.30;88.50
52024;DHT22;38038;45.922;13.604;2024-01-30T11:50:15;9.30;88.40
52024;DHT22;38038;45.922;13.604;2024-01-30T11:52:41;9.40;87.50
52024;DHT22;38038;45.922;13.604;2024-01-30T11:55:08;9.50;86.60
52024;DHT22;38038;45.922;13.604;2024-01-30T11:57:34;9.50;86.60
52024;DHT22;38038;45.922;13.604;2024-01-30T12:00:03;9.50;86.10
52024;DHT22;38038;45.922;13.604;2024-01-30T12:02:41;9.60;85.10
52024;DHT22;38038;45.922;13.604;2024-01-30T12:05:07;9.60;83.20
52024;DHT22;38038;45.922;13.604;2024-01-30T12:07:33;9.70;83.40
52024;DHT22;38038;45.922;13.604;2024-01-30T12:09:59;9.80;83.40
52024;DHT22;38038;45.922;13.604;2024-01-30T12:12:26;9.90;83.80
52024;DHT22;38038;45.922;13.604;2024-01-30T12:14:53;9.90;84.00
52024;DHT22;38038;45.922;13.604;2024-01-30T12:17:32;9.90;84.00
52024;DHT22;38038;45.922;13.604;2024-01-30T12:20:11;9.90;83.80
52024;DHT22;38038;45.922;13.604;2024-01-30T12:22:47;9.90;84.20
52024;DHT22;38038;45.922;13.604;2024-01-30T12:25:15;9.90;84.00
52024;DHT22;38038;45.922;13.604;2024-01-30T12:27:45;9.90;84.10
52024;DHT22;38038;45.922;13.604;2024-01-30T12:30:13;10.20;83.70
52024;DHT22;38038;45.922;13.604;2024-01-30T12:32:41;10.10;81.90
52024;DHT22;38038;45.922;13.604;2024-01-30T12:35:14;10.10;80.90
52024;DHT22;38038;45.922;13.604;2024-01-30T12:37:44;10.10;81.10
52024;DHT22;38038;45.922;13.604;2024-01-30T12:40:16;10.10;82.40
52024;DHT22;38038;45.922;13.604;2024-01-30T12:42:42;10.20;82.60
52024;DHT22;38038;45.922;13.604;2024-01-30T12:45:09;10.20;82.30
52024;DHT22;38038;45.922;13.604;2024-01-30T12:47:35;10.30;82.70
52024;DHT22;38038;45.922;13.604;2024-01-30T12:50:01;10.30;83.30
52024;DHT22;38038;45.922;13.604;2024-01-30T12:52:26;10.30;83.40
52024;DHT22;38038;45.922;13.604;2024-01-30T12:54:52;10.40;84.20
52024;DHT22;38038;45.922;13.604;2024-01-30T12:57:18;10.40;83.30
52024;DHT22;38038;45.922;13.604;2024-01-30T12:59:45;10.40;83.30
52024;DHT22;38038;45.922;13.604;2024-01-30T13:02:12;10.50;82.50
52024;DHT22;38038;45.922;13.604;2024-01-30T13:04:39;10.50;83.50
52024;DHT22;38038;45.922;13.604;2024-01-30T13:07:04;10.50;83.00
52024;DHT22;38038;45.922;13.604;2024-01-30T13:09:30;10.40;83.40
52024;DHT22;38038;45.922;13.604;2024-01-30T13:11:59;10.40;83.90
52024;DHT22;38038;45.922;13.604;2024-01-30T13:14:27;10.40;83.80
52024;DHT22;38038;45.922;13.604;2024-01-30T13:16:53;10.40;84.00
52024;DHT22;38038;45.922;13.604;2024-01-30T13:19:19;10.30;84.50
52024;DHT22;38038;45.922;13.604;2024-01-30T13:21:45;10.30;85.50
52024;DHT22;38038;45.922;13.604;2024-01-30T13:24:11;10.40;85.70
52024;DHT22;38038;45.922;13.604;2024-01-30T13:26:36;10.50;86.50
52024;DHT22;38038;45.922;13.604;2024-01-30T13:29:02;10.40;86.70
52024;DHT22;38038;45.922;13.604;2024-01-30T13:31:29;10.30;86.50
52024;DHT22;38038;45.922;13.604;2024-01-30T13:33:54;10.30;87.20
52024;DHT22;38038;45.922;13.604;2024-01-30T13:36:21;10.30;87.90
52024;DHT22;38038;45.922;13.604;2024-01-30T13:38:47;10.30;88.10
52024;DHT22;38038;45.922;13.604;2024-01-30T13:41:13;10.30;88.20
52024;DHT22;38038;45.922;13.604;2024-01-30T13:43:39;10.30;88.50
52024;DHT22;38038;45.922;13.604;2024-01-30T13:46:04;10.30;89.10
52024;DHT22;38038;45.922;13.604;2024-01-30T13:48:31;10.30;89.80
52024;DHT22;38038;45.922;13.604;2024-01-30T13:50:57;10.20;90.00
52024;DHT22;38038;45.922;13.604;2024-01-30T13:53:23;10.20;90.20
52024;DHT22;38038;45.922;13.604;2024-01-30T13:55:49;10.20;90.50
52024;DHT22;38038;45.922;13.604;2024-01-30T13:58:14;10.30;90.40
52024;DHT22;38038;45.922;13.604;2024-01-30T14:00:40;10.30;90.50
52024;DHT22;38038;45.922;13.604;2024-01-30T14:03:06;10.30;90.60
52024;DHT22;38038;45.922;13.604;2024-01-30T14:05:32;10.30;90.90
52024;DHT22;38038;45.922;13.604;2024-01-30T14:07:58;10.40;91.10
52024;DHT22;38038;45.922;13.604;2024-01-30T14:10:25;10.30;91.30
52024;DHT22;38038;45.922;13.604;2024-01-30T14:12:51;10.30;91.20
52024;DHT22;38038;45.922;13.604;2024-01-30T14:15:17;10.30;91.20
52024;DHT22;38038;45.922;13.604;2024-01-30T14:17:46;10.40;91.40
52024;DHT22;38038;45.922;13.604;2024-01-30T14:20:14;10.40;91.20
52024;DHT22;38038;45.922;13.604;2024-01-30T14:22:42;10.40;91.10
52024;DHT22;38038;45.922;13.604;2024-01-30T14:25:08;10.40;91.30
52024;DHT22;38038;45.922;13.604;2024-01-30T14:27:35;10.40;91.40
52024;DHT22;38038;45.922;13.604;2024-01-30T14:30:00;10.40;91.60
52024;DHT22;38038;45.922;13.604;2024-01-30T14:32:26;10.30;91.60
52024;DHT22;38038;45.922;13.604;2024-01-30T14:34:52;10.20;91.70
52024;DHT22;38038;45.922;13.604;2024-01-30T14:37:21;10.30;91.70
52024;DHT22;38038;45.922;13.604;2024-01-30T14:39:47;10.20;91.90
52024;DHT22;38038;45.922;13.604;2024-01-30T14:42:16;10.20;92.00
52024;DHT22;38038;45.922;13.604;2024-01-30T14:44:42;10.20;91.90
52024;DHT22;38038;45.922;13.604;2024-01-30T14:47:08;10.20;91.90
52024;DHT22;38038;45.922;13.604;2024-01-30T14:49:34;10.20;92.00
52024;DHT22;38038;45.922;13.604;2024-01-30T14:51:59;10.20;91.70
52024;DHT22;38038;45.922;13.604;2024-01-30T14:54:29;10.10;91.90
52024;DHT22;38038;45.922;13.604;2024-01-30T14:56:54;10.10;92.00
52024;DHT22;38038;45.922;13.604;2024-01-30T14:59:20;10.00;91.70
52024;DHT22;38038;45.922;13.604;2024-01-30T15:01:47;10.00;91.20
52024;DHT22;38038;45.922;13.604;2024-01-30T15:04:13;10.00;91.30
52024;DHT22;38038;45.922;13.604;2024-01-30T15:06:40;10.00;91.20
52024;DHT22;38038;45.922;13.604;2024-01-30T15:09:14;9.90;91.30
52024;DHT22;38038;45.922;13.604;2024-01-30T15:11:41;9.90;91.10
52024;DHT22;38038;45.922;13.604;2024-01-30T15:14:07;9.80;91.10
52024;DHT22;38038;45.922;13.604;2024-01-30T15:16:33;9.80;91.10
52024;DHT22;38038;45.922;13.604;2024-01-30T15:18:58;9.60;91.00
52024;DHT22;38038;45.922;13.604;2024-01-30T15:21:24;9.50;90.80
52024;DHT22;38038;45.922;13.604;2024-01-30T15:23:50;9.60;90.70
52024;DHT22;38038;45.922;13.604;2024-01-30T15:26:15;9.40;90.50
52024;DHT22;38038;45.922;13.604;2024-01-30T15:28:41;9.40;90.70
52024;DHT22;38038;45.922;13.604;2024-01-30T15:31:07;9.40;90.60
52024;DHT22;38038;45.922;13.604;2024-01-30T15:33:33;9.30;90.50
52024;DHT22;38038;45.922;13.604;2024-01-30T15:35:59;9.30;90.40
52024;DHT22;38038;45.922;13.604;2024-01-30T15:38:25;9.20;90.40
52024;DHT22;38038;45.922;13.604;2024-01-30T15:40:52;9.10;90.50
52024;DHT22;38038;45.922;13.604;2024-01-30T15:43:17;9.10;90.60
52024;DHT22;38038;45.922;13.604;2024-01-30T15:45:43;9.10;90.60
52024;DHT22;38038;45.922;13.604;2024-01-30T15:48:09;9.00;90.60
52024;DHT22;38038;45.922;13.604;2024-01-30T15:50:34;8.90;90.80
52024;DHT22;38038;45.922;13.604;2024-01-30T15:53:00;8.90;91.00
52024;DHT22;38038;45.922;13.604;2024-01-30T15:55:26;8.70;91.10
52024;DHT22;38038;45.922;13.604;2024-01-30T15:57:51;8.70;91.30
52024;DHT22;38038;45.922;13.604;2024-01-30T16:00:17;8.50;91.60
52024;DHT22;38038;45.922;13.604;2024-01-30T16:02:43;8.40;91.80
52024;DHT22;38038;45.922;13.604;2024-01-30T16:05:09;8.30;92.00
52024;DHT22;38038;45.922;13.604;2024-01-30T16:07:35;8.10;92.20
52024;DHT22;38038;45.922;13.604;2024-01-30T16:10:01;7.90;92.50
52024;DHT22;38038;45.922;13.604;2024-01-30T16:12:27;7.70;92.80
52024;DHT22;38038;45.922;13.604;2024-01-30T16:14:52;7.70;93.10
52024;DHT22;38038;45.922;13.604;2024-01-30T16:17:18;7.60;93.80
52024;DHT22;38038;45.922;13.604;2024-01-30T16:19:47;7.50;94.10
52024;DHT22;38038;45.922;13.604;2024-01-30T16:46:54;6.40;95.50
52024;DHT22;38038;45.922;13.604;2024-01-30T16:49:21;6.30;95.80
52024;DHT22;38038;45.922;13.604;2024-01-30T16:51:47;6.30;96.30
52024;DHT22;38038;45.922;13.604;2024-01-30T16:54:13;6.20;96.60
52024;DHT22;38038;45.922;13.604;2024-01-30T16:56:38;6.20;96.70
52024;DHT22;38038;45.922;13.604;2024-01-30T16:59:04;6.20;97.10
52024;DHT22;38038;45.922;13.604;2024-01-30T17:01:30;6.20;97.00
52024;DHT22;38038;45.922;13.604;2024-01-30T17:03:55;6.10;97.50
52024;DHT22;38038;45.922;13.604;2024-01-30T17:06:22;6.20;97.30
52024;DHT22;38038;45.922;13.604;2024-01-30T17:08:48;6.20;97.10
52024;DHT22;38038;45.922;13.604;2024-01-30T17:11:13;6.10;97.70
52024;DHT22;38038;45.922;13.604;2024-01-30T17:13:39;6.10;97.60
52024;DHT22;38038;45.922;13.604;2024-01-30T17:16:05;6.00;98.40
52024;DHT22;38038;45.922;13.604;2024-01-30T17:18:31;5.90;98.50
52024;DHT22;38038;45.922;13.604;2024-01-30T17:20:57;5.70;98.90
52024;DHT22;38038;45.922;13.604;2024-01-30T17:23:23;5.50;99.40
52024;DHT22;38038;45.922;13.604;2024-01-30T17:25:51;5.40;99.80
52024;DHT22;38038;45.922;13.604;2024-01-30T17:28:17;5.40;99.90
52024;DHT22;38038;45.922;13.604;2024-01-30T17:30:42;5.30;99.90
52024;DHT22;38038;45.922;13.604;2024-01-30T17:33:08;5.30;99.90
52024;DHT22;38038;45.922;13.604;2024-01-30T17:35:35;5.20;99.90
52024;DHT22;38038;45.922;13.604;2024-01-30T17:38:00;5.20;99.90
52024;DHT22;38038;45.922;13.604;2024-01-30T17:40:28;5.20;99.90
52024;DHT22;38038;45.922;13.604;2024-01-30T17:42:54;5.10;99.90
52024;DHT22;38038;45.922;13.604;2024-01-30T17:45:22;5.10;99.90
52024;DHT22;38038;45.922;13.604;2024-01-30T17:47:48;5.00;99.90
52024;DHT22;38038;45.922;13.604;2024-01-30T17:50:13;4.90;99.90
52024;DHT22;38038;45.922;13.604;2024-01-30T17:52:39;4.80;99.90
52024;DHT22;38038;45.922;13.604;2024-01-30T17:55:05;4.70;99.90
52024;DHT22;38038;45.922;13.604;2024-01-30T17:57:32;4.60;99.90
52024;DHT22;38038;45.922;13.604;2024-01-30T17:59:58;4.60;99.90
52024;DHT22;38038;45.922;13.604;2024-01-30T18:02:23;4.60;99.90
52024;DHT22;38038;45.922;13.604;2024-01-30T18:04:49;4.40;99.90
52024;DHT22;38038;45.922;13.604;2024-01-30T18:07:15;4.40;99.90
52024;DHT22;38038;45.922;13.604;2024-01-30T18:09:41;4.40;99.90
52024;DHT22;38038;45.922;13.604;2024-01-30T18:12:06;4.40;99.90
52024;DHT22;38038;45.922;13.604;2024-01-30T18:14:34;4.30;99.90
52024;DHT22;38038;45.922;13.604;2024-01-30T18:17:00;4.30;99.90
52024;DHT22;38038;45.922;13.604;2024-01-30T18:19:25;4.30;99.90
52024;DHT22;38038;45.922;13.604;2024-01-30T18:21:51;4.20;99.90
52024;DHT22;38038;45.922;13.604;2024-01-30T18:24:17;4.10;99.90
52024;DHT22;38038;45.922;13.604;2024-01-30T18:26:43;4.00;99.90
52024;DHT22;38038;45.922;13.604;2024-01-30T18:29:08;3.90;99.90
52024;DHT22;38038;45.922;13.604;2024-01-30T18:31:38;4.00;99.90
52024;DHT22;38038;45.922;13.604;2024-01-30T18:34:07;3.90;99.90
52024;DHT22;38038;45.922;13.604;2024-01-30T18:36:33;3.80;99.90
52024;DHT22;38038;45.922;13.604;2024-01-30T18:39:00;3.80;99.90
52024;DHT22;38038;45.922;13.604;2024-01-30T18:41:28;3.70;99.90
52024;DHT22;38038;45.922;13.604;2024-01-30T18:43:56;3.70;99.90
52024;DHT22;38038;45.922;13.604;2024-01-30T18:46:21;3.50;99.90
52024;DHT22;38038;45.922;13.604;2024-01-30T18:48:49;3.50;99.90
52024;DHT22;38038;45.922;13.604;2024-01-30T18:51:15;3.40;99.90
52024;DHT22;38038;45.922;13.604;2024-01-30T18:53:44;3.40;99.90
52024;DHT22;38038;45.922;13.604;2024-01-30T18:56:12;3.40;99.90
52024;DHT22;38038;45.922;13.604;2024-01-30T18:58:38;3.30;99.90
52024;DHT22;38038;45.922;13.604;2024-01-30T19:01:04;3.20;99.90
52024;DHT22;38038;45.922;13.604;2024-01-30T19:03:29;3.20;99.90
52024;DHT22;38038;45.922;13.604;2024-01-30T19:05:55;3.10;99.90
52024;DHT22;38038;45.922;13.604;2024-01-30T19:08:21;3.10;99.90
52024;DHT22;38038;45.922;13.604;2024-01-30T19:10:47;3.10;99.90
52024;DHT22;38038;45.922;13.604;2024-01-30T19:13:16;3.10;99.90
52024;DHT22;38038;45.922;13.604;2024-01-30T19:15:43;3.00;99.90
52024;DHT22;38038;45.922;13.604;2024-01-30T19:18:09;3.00;99.90
52024;DHT22;38038;45.922;13.604;2024-01-30T19:20:35;3.00;99.90
52024;DHT22;38038;45.922;13.604;2024-01-30T19:23:01;3.00;99.90
52024;DHT22;38038;45.922;13.604;2024-01-30T19:25:27;3.00;99.90